Rockport, Utah
Current Conditions -  °F | °C
As of 10:55 PM on Sunday 19 Oct 2014 (Local Time) from K36U Reporting Station
Clear Clear  
Wind Chill: 41°   Ceiling: Unl
Heat Index: 41°   Visibility: 10mi
Dew Point: 32°   Wind: 3mph
Humidity: 70%   Direction: 110°ESE
Pressure: 30.13"   Gusts: NA
Location:  40.7654°N, 111.287°W
Report Text: K36U 200455Z AUTO 11003KT 10SM CLR 05/00 A3013 RMK AO2
Loading
Personal Weather Stations






























Interactive Weather Map
Tropical Storm Tracking
New forecast layout! Learn more

10-Day Weather Forecast

Advertisements
Track Severe Weather on mobile